sensor_id;sensor_type;location;lat;lon;timestamp;pressure;altitude;pressure_sealevel;temperature;humidity
41202;BME280;26936;50.524;8.684;2023-03-01T00:01:11;100575.34;;;-1.78;91.16
41202;BME280;26936;50.524;8.684;2023-03-01T00:03:37;100571.34;;;-1.80;91.18
41202;BME280;26936;50.524;8.684;2023-03-01T00:06:03;100574.44;;;-1.82;91.26
41202;BME280;26936;50.524;8.684;2023-03-01T00:08:29;100572.38;;;-1.85;91.28
41202;BME280;26936;50.524;8.684;2023-03-01T00:13:26;100563.97;;;-1.88;90.75
41202;BME280;26936;50.524;8.684;2023-03-01T00:15:51;100568.66;;;-1.89;90.91
41202;BME280;26936;50.524;8.684;2023-03-01T00:18:17;100565.78;;;-1.92;89.79
41202;BME280;26936;50.524;8.684;2023-03-01T00:20:49;100566.00;;;-1.97;89.94
41202;BME280;26936;50.524;8.684;2023-03-01T00:23:14;100560.38;;;-2.01;90.06
41202;BME280;26936;50.524;8.684;2023-03-01T00:25:43;100564.59;;;-2.03;89.75
41202;BME280;26936;50.524;8.684;2023-03-01T00:28:08;100548.72;;;-2.06;89.75
41202;BME280;26936;50.524;8.684;2023-03-01T00:30:34;100547.56;;;-2.05;90.10
41202;BME280;26936;50.524;8.684;2023-03-01T00:32:59;100542.81;;;-2.17;90.19
41202;BME280;26936;50.524;8.684;2023-03-01T00:35:24;100546.13;;;-2.23;90.91
41202;BME280;26936;50.524;8.684;2023-03-01T00:37:50;100544.53;;;-2.24;90.29
41202;BME280;26936;50.524;8.684;2023-03-01T00:40:25;100542.09;;;-2.26;90.85
41202;BME280;26936;50.524;8.684;2023-03-01T00:42:51;100533.50;;;-2.24;91.02
41202;BME280;26936;50.524;8.684;2023-03-01T00:45:16;100542.78;;;-2.29;91.18
41202;BME280;26936;50.524;8.684;2023-03-01T00:47:42;100537.63;;;-2.30;91.37
41202;BME280;26936;50.524;8.684;2023-03-01T00:50:09;100540.59;;;-2.35;91.88
41202;BME280;26936;50.524;8.684;2023-03-01T00:52:34;100539.28;;;-2.38;92.07
41202;BME280;26936;50.524;8.684;2023-03-01T00:54:59;100537.09;;;-2.44;92.15
41202;BME280;26936;50.524;8.684;2023-03-01T00:57:25;100539.69;;;-2.48;92.18
41202;BME280;26936;50.524;8.684;2023-03-01T00:59:50;100542.47;;;-2.48;91.81
41202;BME280;26936;50.524;8.684;2023-03-01T01:02:18;100540.25;;;-2.54;92.23
41202;BME280;26936;50.524;8.684;2023-03-01T01:04:43;100534.53;;;-2.49;92.14
41202;BME280;26936;50.524;8.684;2023-03-01T01:07:08;100543.47;;;-2.52;91.98
41202;BME280;26936;50.524;8.684;2023-03-01T01:09:33;100533.75;;;-2.50;92.60
41202;BME280;26936;50.524;8.684;2023-03-01T01:11:59;100526.00;;;-2.56;93.09
41202;BME280;26936;50.524;8.684;2023-03-01T01:14:24;100526.91;;;-2.64;93.23
41202;BME280;26936;50.524;8.684;2023-03-01T01:16:49;100528.50;;;-2.63;93.55
41202;BME280;26936;50.524;8.684;2023-03-01T01:19:15;100526.69;;;-2.59;93.46
41202;BME280;26936;50.524;8.684;2023-03-01T01:21:40;100516.94;;;-2.57;92.58
41202;BME280;26936;50.524;8.684;2023-03-01T01:24:08;100515.97;;;-2.61;93.11
41202;BME280;26936;50.524;8.684;2023-03-01T01:26:34;100510.34;;;-2.64;93.15
41202;BME280;26936;50.524;8.684;2023-03-01T01:29:01;100508.91;;;-2.70;93.29
41202;BME280;26936;50.524;8.684;2023-03-01T01:31:27;100518.06;;;-2.79;93.55
41202;BME280;26936;50.524;8.684;2023-03-01T01:33:54;100522.00;;;-2.80;93.58
41202;BME280;26936;50.524;8.684;2023-03-01T01:36:19;100529.09;;;-2.79;93.56
41202;BME280;26936;50.524;8.684;2023-03-01T01:38:45;100519.44;;;-2.85;93.17
41202;BME280;26936;50.524;8.684;2023-03-01T01:41:12;100516.88;;;-2.90;94.21
41202;BME280;26936;50.524;8.684;2023-03-01T01:43:49;100519.84;;;-2.95;94.21
41202;BME280;26936;50.524;8.684;2023-03-01T01:46:30;100515.59;;;-2.92;94.12
41202;BME280;26936;50.524;8.684;2023-03-01T01:49:07;100509.00;;;-3.00;94.05
41202;BME280;26936;50.524;8.684;2023-03-01T01:51:39;100506.25;;;-3.00;94.29
41202;BME280;26936;50.524;8.684;2023-03-01T01:54:09;100512.91;;;-3.01;94.52
41202;BME280;26936;50.524;8.684;2023-03-01T01:56:37;100513.69;;;-3.00;94.61
41202;BME280;26936;50.524;8.684;2023-03-01T01:59:04;100513.13;;;-3.06;95.05
41202;BME280;26936;50.524;8.684;2023-03-01T02:01:30;100517.22;;;-3.12;95.40
41202;BME280;26936;50.524;8.684;2023-03-01T02:03:55;100507.94;;;-3.07;94.94
41202;BME280;26936;50.524;8.684;2023-03-01T02:06:48;100512.50;;;-3.11;95.54
41202;BME280;26936;50.524;8.684;2023-03-01T02:09:16;100508.28;;;-3.09;95.20
41202;BME280;26936;50.524;8.684;2023-03-01T02:11:44;100511.56;;;-3.15;94.79
41202;BME280;26936;50.524;8.684;2023-03-01T02:14:09;100492.47;;;-3.20;95.65
41202;BME280;26936;50.524;8.684;2023-03-01T02:16:35;100500.41;;;-3.19;95.43
41202;BME280;26936;50.524;8.684;2023-03-01T02:19:00;100498.13;;;-3.17;95.80
41202;BME280;26936;50.524;8.684;2023-03-01T02:21:52;100490.06;;;-3.22;96.01
41202;BME280;26936;50.524;8.684;2023-03-01T02:27:10;100491.31;;;-3.19;96.33
41202;BME280;26936;50.524;8.684;2023-03-01T02:29:36;100492.31;;;-3.24;96.73
41202;BME280;26936;50.524;8.684;2023-03-01T02:32:02;100487.28;;;-3.22;96.36
41202;BME280;26936;50.524;8.684;2023-03-01T02:34:31;100478.06;;;-3.26;96.36
41202;BME280;26936;50.524;8.684;2023-03-01T02:37:01;100471.69;;;-3.18;96.87
41202;BME280;26936;50.524;8.684;2023-03-01T02:39:48;100464.25;;;-3.17;97.42
41202;BME280;26936;50.524;8.684;2023-03-01T02:42:17;100469.94;;;-3.22;96.91
41202;BME280;26936;50.524;8.684;2023-03-01T02:44:43;100475.47;;;-3.22;98.15
41202;BME280;26936;50.524;8.684;2023-03-01T02:47:09;100474.78;;;-3.19;97.94
41202;BME280;26936;50.524;8.684;2023-03-01T02:49:36;100470.91;;;-3.18;97.50
41202;BME280;26936;50.524;8.684;2023-03-01T02:52:52;100469.41;;;-3.16;97.78
41202;BME280;26936;50.524;8.684;2023-03-01T02:55:03;100464.84;;;-3.12;97.80
41202;BME280;26936;50.524;8.684;2023-03-01T02:57:31;100465.50;;;-3.15;97.87
41202;BME280;26936;50.524;8.684;2023-03-01T03:00:03;100465.50;;;-3.15;97.25
41202;BME280;26936;50.524;8.684;2023-03-01T03:02:33;100451.72;;;-3.15;98.09
41202;BME280;26936;50.524;8.684;2023-03-01T03:05:07;100464.72;;;-3.15;97.40
41202;BME280;26936;50.524;8.684;2023-03-01T03:07:35;100461.97;;;-3.15;98.10
41202;BME280;26936;50.524;8.684;2023-03-01T03:10:02;100461.50;;;-3.17;97.45
41202;BME280;26936;50.524;8.684;2023-03-01T03:12:28;100451.16;;;-3.20;97.13
41202;BME280;26936;50.524;8.684;2023-03-01T03:14:53;100450.31;;;-3.21;97.11
41202;BME280;26936;50.524;8.684;2023-03-01T03:17:19;100443.81;;;-3.16;97.22
41202;BME280;26936;50.524;8.684;2023-03-01T03:19:44;100435.09;;;-3.18;97.55
41202;BME280;26936;50.524;8.684;2023-03-01T03:22:11;100440.72;;;-3.15;97.63
41202;BME280;26936;50.524;8.684;2023-03-01T03:24:36;100431.44;;;-3.10;98.31
41202;BME280;26936;50.524;8.684;2023-03-01T03:27:03;100433.19;;;-3.06;99.04
41202;BME280;26936;50.524;8.684;2023-03-01T03:29:29;100426.53;;;-3.05;98.88
41202;BME280;26936;50.524;8.684;2023-03-01T03:31:54;100418.41;;;-3.01;98.31
41202;BME280;26936;50.524;8.684;2023-03-01T03:34:19;100425.84;;;-3.02;98.52
41202;BME280;26936;50.524;8.684;2023-03-01T03:36:44;100421.16;;;-3.01;98.48
41202;BME280;26936;50.524;8.684;2023-03-01T03:39:10;100426.31;;;-3.00;98.46
41202;BME280;26936;50.524;8.684;2023-03-01T03:41:35;100424.38;;;-2.99;98.44
41202;BME280;26936;50.524;8.684;2023-03-01T03:44:00;100420.59;;;-2.95;99.33
41202;BME280;26936;50.524;8.684;2023-03-01T03:46:26;100421.56;;;-2.91;98.84
41202;BME280;26936;50.524;8.684;2023-03-01T03:48:51;100424.09;;;-2.86;98.24
41202;BME280;26936;50.524;8.684;2023-03-01T03:51:18;100413.88;;;-2.85;98.38
41202;BME280;26936;50.524;8.684;2023-03-01T03:53:44;100413.44;;;-2.75;98.06
41202;BME280;26936;50.524;8.684;2023-03-01T03:56:11;100422.19;;;-2.73;97.72
41202;BME280;26936;50.524;8.684;2023-03-01T03:58:36;100414.72;;;-2.72;97.47
41202;BME280;26936;50.524;8.684;2023-03-01T04:01:02;100422.75;;;-2.67;97.27
41202;BME280;26936;50.524;8.684;2023-03-01T04:03:29;100423.56;;;-2.67;96.70
41202;BME280;26936;50.524;8.684;2023-03-01T04:05:57;100425.88;;;-2.69;96.80
41202;BME280;26936;50.524;8.684;2023-03-01T04:08:23;100429.78;;;-2.70;97.21
41202;BME280;26936;50.524;8.684;2023-03-01T04:10:51;100425.06;;;-2.69;97.07
41202;BME280;26936;50.524;8.684;2023-03-01T04:13:19;100416.69;;;-2.73;97.28
41202;BME280;26936;50.524;8.684;2023-03-01T04:15:54;100422.41;;;-2.78;97.20
41202;BME280;26936;50.524;8.684;2023-03-01T04:18:22;100414.59;;;-2.76;96.72
41202;BME280;26936;50.524;8.684;2023-03-01T04:20:48;100414.47;;;-2.80;96.62
41202;BME280;26936;50.524;8.684;2023-03-01T04:23:19;100409.63;;;-2.83;96.65
41202;BME280;26936;50.524;8.684;2023-03-01T04:25:53;100409.16;;;-2.85;97.63
41202;BME280;26936;50.524;8.684;2023-03-01T04:30:54;100406.06;;;-2.83;97.78
41202;BME280;26936;50.524;8.684;2023-03-01T04:33:20;100408.00;;;-2.84;97.74
41202;BME280;26936;50.524;8.684;2023-03-01T04:35:45;100407.66;;;-2.82;97.89
41202;BME280;26936;50.524;8.684;2023-03-01T04:38:11;100404.56;;;-2.81;97.50
41202;BME280;26936;50.524;8.684;2023-03-01T04:40:37;100400.81;;;-2.76;98.11
41202;BME280;26936;50.524;8.684;2023-03-01T04:43:03;100400.00;;;-2.77;97.73
41202;BME280;26936;50.524;8.684;2023-03-01T04:45:29;100400.47;;;-2.74;97.87
41202;BME280;26936;50.524;8.684;2023-03-01T04:47:54;100404.50;;;-2.72;97.74
41202;BME280;26936;50.524;8.684;2023-03-01T04:50:20;100404.97;;;-2.70;97.63
41202;BME280;26936;50.524;8.684;2023-03-01T04:52:47;100405.44;;;-2.68;97.40
41202;BME280;26936;50.524;8.684;2023-03-01T04:55:13;100409.78;;;-2.67;97.99
41202;BME280;26936;50.524;8.684;2023-03-01T04:57:38;100403.81;;;-2.69;97.71
41202;BME280;26936;50.524;8.684;2023-03-01T05:00:06;100408.97;;;-2.67;97.35
41202;BME280;26936;50.524;8.684;2023-03-01T05:02:52;100405.09;;;-2.66;97.36
41202;BME280;26936;50.524;8.684;2023-03-01T05:07:51;100404.75;;;-2.65;97.13
41202;BME280;26936;50.524;8.684;2023-03-01T05:10:16;100397.63;;;-2.66;97.04
41202;BME280;26936;50.524;8.684;2023-03-01T05:12:42;100396.00;;;-2.67;96.72
41202;BME280;26936;50.524;8.684;2023-03-01T05:15:07;100399.56;;;-2.66;97.00
41202;BME280;26936;50.524;8.684;2023-03-01T05:17:33;100399.44;;;-2.70;96.24
41202;BME280;26936;50.524;8.684;2023-03-01T05:19:59;100402.53;;;-2.71;96.78
41202;BME280;26936;50.524;8.684;2023-03-01T05:22:24;100405.19;;;-2.75;97.38
41202;BME280;26936;50.524;8.684;2023-03-01T05:24:50;100404.50;;;-2.72;97.59
41202;BME280;26936;50.524;8.684;2023-03-01T05:27:15;100401.72;;;-2.72;97.80
41202;BME280;26936;50.524;8.684;2023-03-01T05:29:40;100399.44;;;-2.70;97.41
41202;BME280;26936;50.524;8.684;2023-03-01T05:32:06;100390.50;;;-2.67;97.80
41202;BME280;26936;50.524;8.684;2023-03-01T05:34:34;100391.88;;;-2.61;97.63
41202;BME280;26936;50.524;8.684;2023-03-01T05:37:01;100389.84;;;-2.52;97.00
41202;BME280;26936;50.524;8.684;2023-03-01T05:39:28;100392.84;;;-2.45;97.05
41202;BME280;26936;50.524;8.684;2023-03-01T05:41:58;100385.38;;;-2.44;96.74
41202;BME280;26936;50.524;8.684;2023-03-01T05:44:24;100385.50;;;-2.41;96.87
41202;BME280;26936;50.524;8.684;2023-03-01T05:46:50;100378.03;;;-2.40;96.54
41202;BME280;26936;50.524;8.684;2023-03-01T05:49:16;100386.66;;;-2.42;96.13
41202;BME280;26936;50.524;8.684;2023-03-01T05:51:43;100390.19;;;-2.41;97.01
41202;BME280;26936;50.524;8.684;2023-03-01T05:54:10;100390.66;;;-2.39;96.37
41202;BME280;26936;50.524;8.684;2023-03-01T05:56:36;100383.66;;;-2.37;96.37
41202;BME280;26936;50.524;8.684;2023-03-01T05:59:03;100369.53;;;-2.35;95.70
41202;BME280;26936;50.524;8.684;2023-03-01T06:01:30;100387.34;;;-2.33;96.13
41202;BME280;26936;50.524;8.684;2023-03-01T06:03:55;100377.94;;;-2.32;96.08
41202;BME280;26936;50.524;8.684;2023-03-01T06:06:21;100382.75;;;-2.29;95.96
41202;BME280;26936;50.524;8.684;2023-03-01T06:08:47;100377.59;;;-2.30;96.20
41202;BME280;26936;50.524;8.684;2023-03-01T06:11:12;100392.28;;;-2.26;96.12
41202;BME280;26936;50.524;8.684;2023-03-01T06:13:37;100385.28;;;-2.24;95.50
41202;BME280;26936;50.524;8.684;2023-03-01T06:16:06;100387.38;;;-2.21;96.07
41202;BME280;26936;50.524;8.684;2023-03-01T06:18:32;100387.25;;;-2.12;95.18
41202;BME280;26936;50.524;8.684;2023-03-01T06:20:57;100394.59;;;-2.16;94.68
41202;BME280;26936;50.524;8.684;2023-03-01T06:23:23;100388.03;;;-2.12;95.02
41202;BME280;26936;50.524;8.684;2023-03-01T06:25:48;100388.28;;;-2.05;95.14
41202;BME280;26936;50.524;8.684;2023-03-01T06:28:14;100394.97;;;-2.06;95.10
41202;BME280;26936;50.524;8.684;2023-03-01T06:30:39;100392.88;;;-1.97;95.34
41202;BME280;26936;50.524;8.684;2023-03-01T06:33:04;100394.94;;;-1.94;96.07
41202;BME280;26936;50.524;8.684;2023-03-01T06:35:30;100383.34;;;-1.87;96.99
41202;BME280;26936;50.524;8.684;2023-03-01T06:37:57;100392.44;;;-1.75;95.36
41202;BME280;26936;50.524;8.684;2023-03-01T06:40:23;100386.66;;;-1.70;95.34
41202;BME280;26936;50.524;8.684;2023-03-01T06:42:50;100380.88;;;-1.65;94.66
41202;BME280;26936;50.524;8.684;2023-03-01T06:45:17;100382.28;;;-1.59;95.06
41202;BME280;26936;50.524;8.684;2023-03-01T06:47:42;100382.13;;;-1.50;94.88
41202;BME280;26936;50.524;8.684;2023-03-01T06:50:08;100390.41;;;-1.38;92.76
41202;BME280;26936;50.524;8.684;2023-03-01T06:52:34;100387.97;;;-1.27;93.07
41202;BME280;26936;50.524;8.684;2023-03-01T06:54:59;100383.78;;;-1.21;92.12
41202;BME280;26936;50.524;8.684;2023-03-01T06:57:25;100384.06;;;-0.99;91.61
41202;BME280;26936;50.524;8.684;2023-03-01T06:59:50;100380.19;;;-0.82;90.68
41202;BME280;26936;50.524;8.684;2023-03-01T07:02:16;100371.53;;;-0.65;89.57
41202;BME280;26936;50.524;8.684;2023-03-01T07:04:42;100378.34;;;-0.47;88.48
41202;BME280;26936;50.524;8.684;2023-03-01T07:07:07;100365.72;;;-0.17;86.66
41202;BME280;26936;50.524;8.684;2023-03-01T07:09:33;100361.59;;;0.08;84.65
41202;BME280;26936;50.524;8.684;2023-03-01T07:11:59;100367.53;;;0.26;82.55
41202;BME280;26936;50.524;8.684;2023-03-01T07:14:24;100374.81;;;0.49;82.52
41202;BME280;26936;50.524;8.684;2023-03-01T07:16:51;100361.28;;;0.82;80.86
41202;BME280;26936;50.524;8.684;2023-03-01T07:19:16;100362.16;;;1.05;80.16
41202;BME280;26936;50.524;8.684;2023-03-01T07:21:42;100359.09;;;1.10;78.50
41202;BME280;26936;50.524;8.684;2023-03-01T07:24:07;100348.56;;;1.38;76.82
41202;BME280;26936;50.524;8.684;2023-03-01T07:26:33;100356.53;;;1.63;76.65
41202;BME280;26936;50.524;8.684;2023-03-01T07:28:59;100356.25;;;1.49;75.96
41202;BME280;26936;50.524;8.684;2023-03-01T07:31:25;100359.09;;;1.52;76.14
41202;BME280;26936;50.524;8.684;2023-03-01T07:33:52;100363.00;;;1.70;75.38
41202;BME280;26936;50.524;8.684;2023-03-01T07:36:18;100366.56;;;1.48;75.54
41202;BME280;26936;50.524;8.684;2023-03-01T07:38:43;100367.63;;;1.63;75.13
41202;BME280;26936;50.524;8.684;2023-03-01T07:41:08;100365.38;;;1.49;76.20
41202;BME280;26936;50.524;8.684;2023-03-01T07:43:33;100360.41;;;1.58;75.58
41202;BME280;26936;50.524;8.684;2023-03-01T07:46:00;100368.84;;;1.42;75.88
41202;BME280;26936;50.524;8.684;2023-03-01T07:48:27;100365.91;;;1.35;75.89
41202;BME280;26936;50.524;8.684;2023-03-01T07:50:52;100369.22;;;1.41;76.81
41202;BME280;26936;50.524;8.684;2023-03-01T07:53:18;100362.63;;;1.49;76.54
41202;BME280;26936;50.524;8.684;2023-03-01T07:55:43;100370.88;;;1.46;77.30
41202;BME280;26936;50.524;8.684;2023-03-01T07:58:08;100363.06;;;1.51;77.64
41202;BME280;26936;50.524;8.684;2023-03-01T08:00:34;100361.75;;;1.45;77.81
41202;BME280;26936;50.524;8.684;2023-03-01T08:03:02;100367.56;;;1.59;76.59
41202;BME280;26936;50.524;8.684;2023-03-01T08:05:28;100366.75;;;1.81;75.94
41202;BME280;26936;50.524;8.684;2023-03-01T08:07:53;100357.88;;;1.95;75.14
41202;BME280;26936;50.524;8.684;2023-03-01T08:10:19;100364.75;;;2.04;74.02
41202;BME280;26936;50.524;8.684;2023-03-01T08:12:45;100360.91;;;2.09;73.67
41202;BME280;26936;50.524;8.684;2023-03-01T08:15:11;100367.59;;;2.08;73.10
41202;BME280;26936;50.524;8.684;2023-03-01T08:17:36;100368.69;;;2.26;73.03
41202;BME280;26936;50.524;8.684;2023-03-01T08:20:01;100362.19;;;2.41;71.86
41202;BME280;26936;50.524;8.684;2023-03-01T08:22:29;100368.63;;;2.48;71.31
41202;BME280;26936;50.524;8.684;2023-03-01T08:24:54;100369.72;;;2.40;72.77
41202;BME280;26936;50.524;8.684;2023-03-01T08:27:20;100364.56;;;2.68;71.24
41202;BME280;26936;50.524;8.684;2023-03-01T08:29:46;100366.75;;;2.86;70.38
41202;BME280;26936;50.524;8.684;2023-03-01T08:32:11;100367.16;;;2.84;70.73
41202;BME280;26936;50.524;8.684;2023-03-01T08:34:36;100360.03;;;2.57;71.44
41202;BME280;26936;50.524;8.684;2023-03-01T08:37:02;100349.78;;;2.64;71.21
41202;BME280;26936;50.524;8.684;2023-03-01T08:39:27;100349.72;;;2.57;71.01
41202;BME280;26936;50.524;8.684;2023-03-01T08:41:52;100348.00;;;2.79;70.54
41202;BME280;26936;50.524;8.684;2023-03-01T08:44:18;100352.84;;;2.82;69.89
41202;BME280;26936;50.524;8.684;2023-03-01T08:46:44;100348.72;;;2.72;70.35
41202;BME280;26936;50.524;8.684;2023-03-01T08:49:16;100342.81;;;3.07;69.17
41202;BME280;26936;50.524;8.684;2023-03-01T08:51:43;100342.31;;;2.98;68.61
41202;BME280;26936;50.524;8.684;2023-03-01T08:54:17;100332.22;;;3.20;68.91
41202;BME280;26936;50.524;8.684;2023-03-01T08:56:43;100329.00;;;3.54;67.43
41202;BME280;26936;50.524;8.684;2023-03-01T08:59:10;100316.56;;;3.45;66.69
41202;BME280;26936;50.524;8.684;2023-03-01T09:01:35;100320.03;;;3.71;64.44
41202;BME280;26936;50.524;8.684;2023-03-01T09:04:02;100317.13;;;4.04;64.09
41202;BME280;26936;50.524;8.684;2023-03-01T09:06:30;100309.94;;;4.68;62.54
41202;BME280;26936;50.524;8.684;2023-03-01T09:08:55;100305.63;;;4.85;60.66
41202;BME280;26936;50.524;8.684;2023-03-01T09:11:21;100307.41;;;5.35;60.44
41202;BME280;26936;50.524;8.684;2023-03-01T09:13:47;100308.25;;;5.49;57.92
41202;BME280;26936;50.524;8.684;2023-03-01T09:16:15;100309.50;;;6.05;56.81
41202;BME280;26936;50.524;8.684;2023-03-01T09:18:41;100310.47;;;7.02;54.99
41202;BME280;26936;50.524;8.684;2023-03-01T09:23:39;100295.31;;;7.65;51.16
41202;BME280;26936;50.524;8.684;2023-03-01T09:26:10;100300.19;;;8.05;50.13
41202;BME280;26936;50.524;8.684;2023-03-01T09:28:36;100302.88;;;8.19;49.96
41202;BME280;26936;50.524;8.684;2023-03-01T09:31:02;100286.31;;;8.72;48.68
41202;BME280;26936;50.524;8.684;2023-03-01T09:33:29;100284.53;;;9.19;47.09
41202;BME280;26936;50.524;8.684;2023-03-01T09:36:03;100279.59;;;10.72;44.03
41202;BME280;26936;50.524;8.684;2023-03-01T09:38:29;100270.56;;;10.80;42.15
41202;BME280;26936;50.524;8.684;2023-03-01T09:40:55;100275.00;;;10.62;43.31
41202;BME280;26936;50.524;8.684;2023-03-01T09:46:41;100280.63;;;11.01;41.77
41202;BME280;26936;50.524;8.684;2023-03-01T09:49:28;100280.84;;;12.29;38.66
41202;BME280;26936;50.524;8.684;2023-03-01T09:52:03;100283.09;;;12.95;38.08
41202;BME280;26936;50.524;8.684;2023-03-01T09:54:34;100280.50;;;12.72;37.32
41202;BME280;26936;50.524;8.684;2023-03-01T09:57:14;100270.09;;;13.51;37.60
41202;BME280;26936;50.524;8.684;2023-03-01T10:05:31;100267.41;;;14.79;35.10
41202;BME280;26936;50.524;8.684;2023-03-01T10:08:36;100264.78;;;13.91;35.88
41202;BME280;26936;50.524;8.684;2023-03-01T10:11:02;100249.72;;;14.53;34.13
41202;BME280;26936;50.524;8.684;2023-03-01T10:13:45;100251.38;;;14.85;34.93
41202;BME280;26936;50.524;8.684;2023-03-01T10:16:15;100252.63;;;14.62;34.10
41202;BME280;26936;50.524;8.684;2023-03-01T10:18:45;100255.97;;;15.04;34.39
41202;BME280;26936;50.524;8.684;2023-03-01T10:21:14;100239.34;;;15.24;33.74
41202;BME280;26936;50.524;8.684;2023-03-01T10:23:41;100246.16;;;14.15;34.38
41202;BME280;26936;50.524;8.684;2023-03-01T10:31:41;100228.88;;;14.47;35.33
41202;BME280;26936;50.524;8.684;2023-03-01T10:34:19;100226.28;;;12.90;36.03
41202;BME280;26936;50.524;8.684;2023-03-01T10:36:49;100224.72;;;13.80;35.33
41202;BME280;26936;50.524;8.684;2023-03-01T10:39:22;100218.47;;;13.73;35.16
41202;BME280;26936;50.524;8.684;2023-03-01T10:42:04;100218.91;;;13.46;35.37
41202;BME280;26936;50.524;8.684;2023-03-01T10:44:44;100208.56;;;14.02;35.31
41202;BME280;26936;50.524;8.684;2023-03-01T10:47:31;100221.28;;;13.85;35.12
41202;BME280;26936;50.524;8.684;2023-03-01T10:50:02;100213.69;;;14.41;34.61
41202;BME280;26936;50.524;8.684;2023-03-01T10:52:34;100209.69;;;14.94;34.22
41202;BME280;26936;50.524;8.684;2023-03-01T10:57:39;100206.88;;;12.35;36.93
41202;BME280;26936;50.524;8.684;2023-03-01T11:00:24;100203.28;;;12.75;37.38
41202;BME280;26936;50.524;8.684;2023-03-01T11:05:25;100201.72;;;12.17;37.60
41202;BME280;26936;50.524;8.684;2023-03-01T11:07:57;100183.97;;;12.86;36.32
41202;BME280;26936;50.524;8.684;2023-03-01T11:10:35;100181.81;;;11.92;37.39
41202;BME280;26936;50.524;8.684;2023-03-01T11:13:16;100178.47;;;12.25;37.53
41202;BME280;26936;50.524;8.684;2023-03-01T11:15:42;100181.72;;;11.63;37.28
41202;BME280;26936;50.524;8.684;2023-03-01T11:18:26;100175.72;;;11.61;38.50
41202;BME280;26936;50.524;8.684;2023-03-01T11:20:55;100168.00;;;12.39;37.66
41202;BME280;26936;50.524;8.684;2023-03-01T11:23:22;100165.25;;;11.26;36.71
41202;BME280;26936;50.524;8.684;2023-03-01T11:25:53;100163.22;;;11.11;38.58
41202;BME280;26936;50.524;8.684;2023-03-01T11:28:20;100169.09;;;11.84;38.29
41202;BME280;26936;50.524;8.684;2023-03-01T11:30:57;100165.81;;;11.37;39.40
41202;BME280;26936;50.524;8.684;2023-03-01T11:33:48;100156.28;;;12.11;38.04
41202;BME280;26936;50.524;8.684;2023-03-01T11:39:17;100153.53;;;12.78;38.08
41202;BME280;26936;50.524;8.684;2023-03-01T11:41:48;100148.72;;;11.92;38.64
41202;BME280;26936;50.524;8.684;2023-03-01T11:44:21;100154.72;;;11.78;38.74
41202;BME280;26936;50.524;8.684;2023-03-01T11:52:52;100151.97;;;10.55;40.45
41202;BME280;26936;50.524;8.684;2023-03-01T11:58:32;100148.13;;;10.26;41.34
41202;BME280;26936;50.524;8.684;2023-03-01T12:04:16;100130.88;;;10.99;39.73
41202;BME280;26936;50.524;8.684;2023-03-01T12:06:53;100126.19;;;10.57;40.70
41202;BME280;26936;50.524;8.684;2023-03-01T12:09:49;100116.75;;;10.83;40.93
41202;BME280;26936;50.524;8.684;2023-03-01T12:26:40;100079.84;;;10.22;42.37
41202;BME280;26936;50.524;8.684;2023-03-01T12:29:24;100078.22;;;10.02;42.88
41202;BME280;26936;50.524;8.684;2023-03-01T12:35:32;100076.72;;;10.36;41.48
41202;BME280;26936;50.524;8.684;2023-03-01T12:49:11;100077.44;;;10.01;41.84
41202;BME280;26936;50.524;8.684;2023-03-01T12:51:38;100067.09;;;9.75;41.71
41202;BME280;26936;50.524;8.684;2023-03-01T12:54:31;100067.81;;;9.79;42.58
41202;BME280;26936;50.524;8.684;2023-03-01T12:57:26;100057.66;;;9.85;43.56
41202;BME280;26936;50.524;8.684;2023-03-01T12:59:58;100060.66;;;9.32;43.40
41202;BME280;26936;50.524;8.684;2023-03-01T13:02:38;100051.38;;;9.35;44.55
41202;BME280;26936;50.524;8.684;2023-03-01T13:05:10;100042.03;;;9.61;45.18
41202;BME280;26936;50.524;8.684;2023-03-01T13:07:53;100042.19;;;9.54;44.79
41202;BME280;26936;50.524;8.684;2023-03-01T13:10:34;100029.09;;;9.24;45.31
41202;BME280;26936;50.524;8.684;2023-03-01T13:13:15;100040.25;;;9.28;45.08
41202;BME280;26936;50.524;8.684;2023-03-01T13:15:43;100033.47;;;9.02;44.19
41202;BME280;26936;50.524;8.684;2023-03-01T13:23:24;100034.13;;;8.87;45.78
41202;BME280;26936;50.524;8.684;2023-03-01T13:31:08;100039.31;;;8.62;46.41
41202;BME280;26936;50.524;8.684;2023-03-01T13:33:53;100038.06;;;8.06;46.68
41202;BME280;26936;50.524;8.684;2023-03-01T13:44:30;100016.78;;;8.12;46.57
41202;BME280;26936;50.524;8.684;2023-03-01T13:52:30;99994.22;;;7.89;48.44
41202;BME280;26936;50.524;8.684;2023-03-01T13:54:57;100006.38;;;7.79;47.59
41202;BME280;26936;50.524;8.684;2023-03-01T13:57:26;99998.66;;;7.86;48.30
41202;BME280;26936;50.524;8.684;2023-03-01T13:59:53;99998.44;;;7.70;48.47
41202;BME280;26936;50.524;8.684;2023-03-01T14:02:18;99998.88;;;7.69;49.41
41202;BME280;26936;50.524;8.684;2023-03-01T14:04:56;99994.66;;;7.87;48.94
41202;BME280;26936;50.524;8.684;2023-03-01T14:07:23;99997.44;;;7.87;48.25
41202;BME280;26936;50.524;8.684;2023-03-01T14:09:57;99993.28;;;7.99;48.07
41202;BME280;26936;50.524;8.684;2023-03-01T14:12:36;99987.56;;;8.06;47.51
41202;BME280;26936;50.524;8.684;2023-03-01T14:15:19;99994.91;;;7.96;47.89
41202;BME280;26936;50.524;8.684;2023-03-01T14:18:08;99986.91;;;7.65;47.51
41202;BME280;26936;50.524;8.684;2023-03-01T14:20:41;99993.06;;;7.53;48.93
41202;BME280;26936;50.524;8.684;2023-03-01T14:23:13;99981.72;;;7.63;48.18
41202;BME280;26936;50.524;8.684;2023-03-01T14:25:50;99989.41;;;7.56;48.71
41202;BME280;26936;50.524;8.684;2023-03-01T14:28:21;99982.06;;;7.69;48.97
41202;BME280;26936;50.524;8.684;2023-03-01T14:30:53;99979.81;;;7.57;48.51
41202;BME280;26936;50.524;8.684;2023-03-01T14:33:37;99979.25;;;7.69;48.06
41202;BME280;26936;50.524;8.684;2023-03-01T14:36:09;99995.69;;;7.67;47.19
41202;BME280;26936;50.524;8.684;2023-03-01T14:38:42;99976.56;;;7.62;48.16
41202;BME280;26936;50.524;8.684;2023-03-01T14:41:10;99979.47;;;7.51;48.24
41202;BME280;26936;50.524;8.684;2023-03-01T14:43:38;99979.50;;;7.48;48.36